Time;durP1;ratioP1;P1;durP2;ratioP2;P2;SDS_P1;SDS_P2;PMS_P1;PMS_P2;Temp;Humidity;BMP_temperature;BMP_pressure;BME280_temperature;BME280_humidity;BME280_pressure;Samples;Min_cycle;Max_cycle;Signal;HPM_P1;HPM_P2
2021/10/20 00:01:42;;;;;;;32.17;27.70;;;;;;;13.46;65.01;100835.25;5013746;28;20448;-76
2021/10/20 00:04:08;;;;;;;31.75;28.00;;;;;;;12.96;65.03;100759.22;5031061;28;20030;-76
2021/10/20 00:06:33;;;;;;;36.15;28.00;;;;;;;13.55;65.12;100855.47;5031118;28;20138;-76
2021/10/20 00:08:58;;;;;;;32.65;27.67;;;;;;;13.54;65.17;100844.03;5030983;28;20033;-76
2021/10/20 00:11:24;;;;;;;31.27;27.73;;;;;;;13.16;65.05;100784.44;5013250;28;20060;-76
2021/10/20 00:13:50;;;;;;;32.95;28.45;;;;;;;13.42;64.92;100829.44;5013286;28;20117;-76
2021/10/20 00:16:17;;;;;;;31.67;28.00;;;;;;;13.48;65.14;100839.41;5013311;28;20103;-76
2021/10/20 00:18:48;;;;;;;30.58;27.20;;;;;;;13.49;64.85;100838.41;5031177;28;20034;-76
2021/10/20 00:21:16;;;;;;;33.87;27.70;;;;;;;12.93;65.15;100744.47;5031298;28;20041;-76
2021/10/20 00:23:42;;;;;;;29.40;25.85;;;;;;;13.41;65.08;100829.59;5033565;28;20060;-76
2021/10/20 00:26:07;;;;;;;27.00;24.08;;;;;;;13.23;65.37;100776.69;5035169;28;20025;-76
2021/10/20 00:28:32;;;;;;;28.55;25.23;;;;;;;13.50;64.99;100808.22;5035043;28;20388;-76
2021/10/20 00:30:58;;;;;;;28.92;25.80;;;;;;;13.56;64.82;100822.66;5034976;28;20032;-76
2021/10/20 00:33:23;;;;;;;27.83;24.85;;;;;;;13.39;64.93;100787.31;5035149;28;20032;-76
2021/10/20 00:35:49;;;;;;;29.70;25.65;;;;;;;13.15;65.01;100756.25;5035120;28;20516;-76
2021/10/20 00:38:14;;;;;;;29.63;26.38;;;;;;;13.21;65.08;100757.47;5034960;28;20025;-75
2021/10/20 00:40:40;;;;;;;31.90;26.38;;;;;;;13.48;65.55;100804.06;5035283;28;20585;-76
2021/10/20 00:43:05;;;;;;;31.88;26.45;;;;;;;12.98;65.82;100728.91;5035117;28;20017;-76
2021/10/20 00:45:31;;;;;;;31.67;28.02;;;;;;;13.32;65.77;100797.75;5034861;28;20052;-76
2021/10/20 00:47:56;;;;;;;32.13;27.23;;;;;;;13.05;65.81;100758.25;5034769;28;20517;-76
2021/10/20 00:50:22;;;;;;;31.92;27.98;;;;;;;13.40;65.33;100804.06;5034757;28;20026;-76
2021/10/20 00:52:47;;;;;;;30.30;27.02;;;;;;;13.18;65.27;100779.81;5016957;28;20106;-76
2021/10/20 00:55:14;;;;;;;28.48;24.35;;;;;;;13.35;65.59;100812.50;5034779;28;20079;-76
2021/10/20 00:57:44;;;;;;;30.63;25.85;;;;;;;12.94;65.76;100748.78;5034693;28;20037;-77
2021/10/20 01:00:10;;;;;;;31.45;26.00;;;;;;;12.85;65.74;100751.59;5034618;28;20030;-76
2021/10/20 01:02:37;;;;;;;29.48;26.27;;;;;;;13.20;65.78;100814.13;5034617;28;20108;-76
2021/10/20 01:05:08;;;;;;;29.85;26.73;;;;;;;13.20;65.76;100804.38;5034505;28;20025;-76
2021/10/20 01:07:34;;;;;;;32.63;26.70;;;;;;;13.08;65.74;100799.50;5034424;28;20048;-75
2021/10/20 01:09:59;;;;;;;30.42;25.15;;;;;;;12.43;65.70;100694.19;5034337;28;20025;-76
2021/10/20 01:12:25;;;;;;;28.50;25.42;;;;;;;12.94;65.77;100788.56;5034261;28;20048;-76
2021/10/20 01:14:51;;;;;;;33.40;25.85;;;;;;;13.05;65.68;100811.28;5034052;28;20100;-76
2021/10/20 01:17:17;;;;;;;30.60;26.48;;;;;;;12.58;65.59;100742.88;5033189;28;20510;-76
2021/10/20 01:19:43;;;;;;;29.25;26.13;;;;;;;13.00;65.79;100817.06;5033164;28;20104;-75
2021/10/20 01:22:09;;;;;;;31.40;27.05;;;;;;;12.77;65.72;100786.03;5033119;28;20025;-75
2021/10/20 01:24:35;;;;;;;29.80;26.58;;;;;;;12.66;65.78;100765.97;5032821;28;20017;-76
2021/10/20 01:27:01;;;;;;;31.80;27.42;;;;;;;12.81;65.86;100784.72;5032833;28;20028;-76
2021/10/20 01:29:26;;;;;;;30.63;26.90;;;;;;;12.49;65.96;100738.56;5032706;28;20029;-76
2021/10/20 01:31:54;;;;;;;35.15;28.33;;;;;;;12.95;65.91;100822.03;5033221;28;20017;-76
2021/10/20 01:34:20;;;;;;;31.02;27.67;;;;;;;12.96;66.26;100815.72;5014745;28;20123;-76
2021/10/20 01:36:47;;;;;;;33.45;29.70;;;;;;;12.69;65.77;100769.13;5032757;28;20017;-76
2021/10/20 01:39:13;;;;;;;34.75;29.60;;;;;;;12.63;66.15;100769.75;5032667;28;20022;-75
2021/10/20 01:41:41;;;;;;;37.55;29.63;;;;;;;12.91;66.36;100815.38;5032751;28;20561;-76
2021/10/20 01:44:06;;;;;;;31.00;26.77;;;;;;;12.88;66.56;100826.31;5032406;28;20106;-76
2021/10/20 01:46:32;;;;;;;35.35;30.77;;;;;;;12.89;66.33;100821.84;5032288;28;20056;-76
2021/10/20 01:48:58;;;;;;;33.70;28.33;;;;;;;12.46;66.20;100761.91;5032421;28;20106;-76
2021/10/20 01:51:23;;;;;;;39.08;31.23;;;;;;;12.85;66.16;100826.63;5032423;28;20028;-76
2021/10/20 01:53:49;;;;;;;34.97;30.23;;;;;;;12.75;65.96;100814.50;5032625;28;20486;-75
2021/10/20 01:56:15;;;;;;;32.85;29.13;;;;;;;12.62;66.52;100777.84;5032637;28;20018;-76
2021/10/20 01:58:41;;;;;;;38.63;32.60;;;;;;;12.79;66.03;100821.16;5032441;28;20021;-76
2021/10/20 02:01:08;;;;;;;36.58;29.60;;;;;;;12.25;66.62;100744.59;5032163;28;20371;-76
2021/10/20 02:03:35;;;;;;;35.95;30.23;;;;;;;12.76;66.47;100817.00;5032075;28;20506;-76
2021/10/20 02:06:07;;;;;;;37.65;31.23;;;;;;;12.24;66.70;100742.13;5032110;28;20104;-76
2021/10/20 02:08:33;;;;;;;36.83;30.02;;;;;;;12.71;66.53;100832.56;5032250;28;20513;-76
2021/10/20 02:10:59;;;;;;;37.42;28.90;;;;;;;12.58;66.09;100806.47;5032287;28;20030;-76
2021/10/20 02:13:25;;;;;;;34.03;29.48;;;;;;;12.67;66.44;100831.22;5031995;28;20025;-76
2021/10/20 02:15:50;;;;;;;34.10;29.30;;;;;;;12.44;66.68;100807.09;4989322;28;1228612;-75
2021/10/20 02:18:16;;;;;;;36.20;30.00;;;;;;;12.64;66.12;100826.22;5033122;28;20495;-76
2021/10/20 02:20:42;;;;;;;38.45;31.88;;;;;;;12.08;66.38;100732.28;5033122;28;20082;-76
2021/10/20 02:23:07;;;;;;;39.15;30.48;;;;;;;12.44;66.48;100793.84;5033089;28;20040;-75
2021/10/20 02:25:33;;;;;;;49.55;32.00;;;;;;;12.44;66.45;100807.09;5032815;28;20044;-76
2021/10/20 02:27:58;;;;;;;36.45;30.13;;;;;;;12.20;66.59;100765.44;5032913;28;20224;-74
2021/10/20 02:30:25;;;;;;;36.72;29.65;;;;;;;12.56;66.40;100836.78;5032877;28;20022;-76
2021/10/20 02:32:51;;;;;;;33.90;30.25;;;;;;;12.22;66.62;100781.16;5032899;28;20032;-76
2021/10/20 02:35:17;;;;;;;34.90;30.63;;;;;;;12.57;66.19;100833.97;5015048;28;20051;-76
2021/10/20 02:37:45;;;;;;;33.70;27.77;;;;;;;12.37;66.44;100804.25;5032708;28;20104;-76
2021/10/20 02:40:11;;;;;;;31.70;26.48;;;;;;;12.22;65.98;100791.75;5032547;28;20049;-76
2021/10/20 02:42:38;;;;;;;36.42;28.08;;;;;;;12.55;65.89;100837.75;5032724;28;20039;-76
2021/10/20 02:45:05;;;;;;;30.23;25.80;;;;;;;12.22;66.16;100808.47;5032085;28;20037;-76
2021/10/20 02:47:30;;;;;;;31.38;25.80;;;;;;;11.94;66.21;100781.34;5032410;28;20035;-75
2021/10/20 02:49:56;;;;;;;31.52;27.40;;;;;;;12.12;66.22;100826.28;5032354;28;20009;-75
2021/10/20 02:52:21;;;;;;;32.17;26.48;;;;;;;11.70;66.22;100775.84;5014623;28;20112;-76
2021/10/20 02:54:47;;;;;;;28.10;24.98;;;;;;;11.56;66.59;100765.81;5032650;28;20482;-76
2021/10/20 02:57:12;;;;;;;33.03;26.77;;;;;;;11.78;66.67;100790.00;5032434;28;20505;-75
2021/10/20 02:59:38;;;;;;;27.73;23.90;;;;;;;11.94;66.41;100801.69;5032429;28;20484;-75
2021/10/20 03:02:03;;;;;;;24.75;22.08;;;;;;;11.80;66.17;100770.47;5032204;28;20029;-76
2021/10/20 03:04:29;;;;;;;25.25;21.67;;;;;;;11.93;66.10;100818.56;5032231;28;20112;-75
2021/10/20 03:06:55;;;;;;;25.70;22.35;;;;;;;11.96;66.07;100834.97;5032216;28;20032;-76
2021/10/20 03:09:20;;;;;;;26.45;21.77;;;;;;;11.78;66.38;100805.03;5032309;28;20099;-75
2021/10/20 03:11:45;;;;;;;30.45;22.85;;;;;;;11.52;65.81;100772.41;5032001;28;20483;-76
2021/10/20 03:14:11;;;;;;;23.88;21.20;;;;;;;11.49;66.45;100785.94;5032061;28;20021;-76
2021/10/20 03:16:36;;;;;;;27.88;23.00;;;;;;;11.63;66.44;100812.66;5032014;28;20590;-75
2021/10/20 03:19:02;;;;;;;21.45;19.15;;;;;;;11.32;66.02;100777.03;5032101;28;20087;-74
2021/10/20 03:21:27;;;;;;;28.27;23.27;;;;;;;11.08;66.65;100767.06;5014210;28;20036;-75
2021/10/20 03:23:53;;;;;;;24.65;20.88;;;;;;;11.38;66.51;100816.09;5014008;28;20060;-76
2021/10/20 03:26:18;;;;;;;21.38;19.15;;;;;;;11.46;66.24;100827.56;5031424;28;20112;-76
2021/10/20 03:28:44;;;;;;;23.05;18.73;;;;;;;11.32;66.39;100814.91;5031898;28;20064;-76
2021/10/20 03:31:09;;;;;;;20.73;18.50;;;;;;;10.94;66.18;100759.66;5031858;28;20076;-76
2021/10/20 03:33:35;;;;;;;19.95;17.55;;;;;;;11.03;66.26;100779.91;5031503;28;20037;-76
2021/10/20 03:36:00;;;;;;;21.02;18.77;;;;;;;10.71;66.12;100752.19;5031455;28;20033;-76
2021/10/20 03:38:26;;;;;;;21.58;18.98;;;;;;;10.98;66.28;100788.28;5031541;28;20474;-76
2021/10/20 03:40:51;;;;;;;22.30;17.83;;;;;;;10.61;66.35;100740.00;5031594;28;20035;-77
2021/10/20 03:43:17;;;;;;;21.17;18.02;;;;;;;10.70;66.38;100753.16;5031624;28;20112;-76
2021/10/20 03:45:42;;;;;;;20.27;17.88;;;;;;;10.87;66.15;100790.31;5031504;28;20033;-76
2021/10/20 03:48:08;;;;;;;21.20;18.95;;;;;;;10.26;66.28;100693.22;5031634;28;20033;-74
2021/10/20 03:50:33;;;;;;;24.15;20.48;;;;;;;10.93;65.98;100810.84;5031545;28;20566;-76
2021/10/20 03:52:59;;;;;;;21.98;17.60;;;;;;;10.97;65.94;100828.91;5031527;28;20056;-76
2021/10/20 03:55:24;;;;;;;19.85;17.75;;;;;;;10.91;66.17;100826.03;5031213;28;20049;-76
2021/10/20 03:57:49;;;;;;;21.65;18.00;;;;;;;10.44;66.26;100776.81;5031112;28;20483;-76
2021/10/20 04:00:17;;;;;;;23.90;18.10;;;;;;;10.47;65.97;100765.13;5031408;28;20028;-77
2021/10/20 04:02:44;;;;;;;19.67;17.58;;;;;;;10.85;65.83;100824.81;5031165;28;20091;-75
2021/10/20 04:05:11;;;;;;;20.58;17.73;;;;;;;10.64;65.78;100796.00;5031515;28;20060;-76
2021/10/20 04:07:40;;;;;;;19.17;17.08;;;;;;;10.75;66.11;100824.03;5031477;28;20490;-76
2021/10/20 04:10:16;;;;;;;19.45;16.52;;;;;;;10.60;65.64;100814.94;5030955;28;20030;-76
2021/10/20 04:12:43;;;;;;;20.20;17.05;;;;;;;10.19;66.29;100759.78;5031075;28;20022;-76
2021/10/20 04:15:10;;;;;;;20.83;17.15;;;;;;;10.57;66.00;100826.63;5030962;28;20035;-75
2021/10/20 04:17:37;;;;;;;21.52;17.63;;;;;;;10.65;66.08;100834.66;5031023;28;20061;-76
2021/10/20 04:20:11;;;;;;;22.02;18.45;;;;;;;10.71;65.78;100839.34;5031152;28;20040;-76
2021/10/20 04:22:36;;;;;;;21.88;18.02;;;;;;;10.72;65.45;100848.09;5031258;28;20033;-76
2021/10/20 04:25:03;;;;;;;26.98;18.73;;;;;;;10.70;65.68;100842.97;5031127;28;20414;-76
2021/10/20 04:27:28;;;;;;;28.42;20.35;;;;;;;10.49;65.92;100795.69;5013357;28;20025;-76
2021/10/20 04:29:56;;;;;;;24.17;19.15;;;;;;;10.24;65.63;100758.53;5030935;28;20486;-76
2021/10/20 04:32:21;;;;;;;22.40;19.70;;;;;;;10.65;65.52;100821.44;5030881;28;20025;-76
2021/10/20 04:34:47;;;;;;;24.98;19.30;;;;;;;10.62;65.50;100816.44;5031001;28;20098;-76
2021/10/20 04:37:12;;;;;;;23.67;19.50;;;;;;;10.76;65.45;100839.72;5031110;28;20029;-76
2021/10/20 04:39:38;;;;;;;24.40;20.35;;;;;;;10.73;65.58;100839.19;5013248;28;20022;-76
2021/10/20 04:42:03;;;;;;;27.83;19.63;;;;;;;10.28;65.50;100773.94;5031150;28;20030;-76
2021/10/20 04:44:28;;;;;;;25.30;20.17;;;;;;;10.51;65.14;100811.38;5031130;28;20040;-74
2021/10/20 04:46:54;;;;;;;35.58;24.17;;;;;;;10.69;65.91;100843.94;5030858;28;20156;-77
2021/10/20 04:49:19;;;;;;;32.63;24.90;;;;;;;10.48;65.60;100795.81;5031072;28;20030;-77
2021/10/20 04:51:45;;;;;;;27.60;22.52;;;;;;;10.77;65.31;100833.47;5030957;28;20032;-77
2021/10/20 04:54:10;;;;;;;28.73;20.83;;;;;;;10.30;65.03;100774.63;5031044;28;20036;-76
2021/10/20 04:56:35;;;;;;;26.38;23.42;;;;;;;10.76;65.09;100834.44;5030699;28;20479;-76
2021/10/20 04:59:01;;;;;;;32.50;24.65;;;;;;;10.48;64.88;100795.81;5012996;28;20029;-76
2021/10/20 05:01:26;;;;;;;37.17;29.30;;;;;;;10.70;64.61;100823.66;5030654;28;20033;-76
2021/10/20 05:03:52;;;;;;;40.70;30.13;;;;;;;10.39;65.33;100779.03;5030599;28;20477;-76
2021/10/20 05:06:17;;;;;;;41.45;31.83;;;;;;;10.57;64.86;100810.78;5030515;28;20149;-75
2021/10/20 05:08:42;;;;;;;38.15;30.23;;;;;;;10.22;64.63;100763.13;5031249;28;20465;-76
2021/10/20 05:11:08;;;;;;;36.47;26.95;;;;;;;10.62;64.82;100842.03;5034329;28;20552;-77
2021/10/20 05:13:33;;;;;;;36.08;27.67;;;;;;;10.58;64.75;100827.47;5034381;28;20025;-76
2021/10/20 05:15:59;;;;;;;36.20;26.02;;;;;;;10.40;64.77;100798.34;5034082;28;20120;-76
2021/10/20 05:18:24;;;;;;;31.75;25.38;;;;;;;10.61;64.89;100845.66;5034129;28;20114;-76
2021/10/20 05:20:50;;;;;;;34.70;26.23;;;;;;;10.56;64.56;100850.53;5033834;28;20029;-76
2021/10/20 05:23:16;;;;;;;34.25;27.17;;;;;;;10.45;64.52;100831.28;5033938;28;20018;-76
2021/10/20 05:25:41;;;;;;;34.63;26.30;;;;;;;9.98;64.80;100769.72;5033533;28;20029;-76
2021/10/20 05:28:07;;;;;;;33.85;24.92;;;;;;;10.22;65.03;100803.56;5033606;28;20431;-77
2021/10/20 05:30:33;;;;;;;33.70;24.80;;;;;;;10.49;64.54;100855.56;5033909;28;20060;-76
2021/10/20 05:32:59;;;;;;;31.77;24.33;;;;;;;10.16;64.32;100818.13;5033875;28;20028;-75
2021/10/20 05:35:25;;;;;;;29.55;23.60;;;;;;;9.79;64.43;100756.59;5033381;28;20044;-77
2021/10/20 05:37:51;;;;;;;33.47;25.05;;;;;;;10.44;64.36;100857.81;5033306;28;20033;-76
2021/10/20 05:40:18;;;;;;;32.47;25.58;;;;;;;10.41;64.47;100860.75;5033760;28;20057;-76
2021/10/20 05:42:44;;;;;;;38.20;29.75;;;;;;;10.30;64.94;100839.78;5033581;28;20029;-77
2021/10/20 05:45:10;;;;;;;39.33;32.97;;;;;;;10.25;64.60;100832.28;5031052;28;20022;-76
2021/10/20 05:47:36;;;;;;;34.08;27.85;;;;;;;10.45;64.36;100873.50;5024082;28;20113;-77
2021/10/20 05:50:03;;;;;;;32.67;26.05;;;;;;;10.00;64.49;100788.88;5023302;28;20029;-76
2021/10/20 05:52:28;;;;;;;32.00;25.50;;;;;;;9.87;64.50;100752.25;5033160;28;20029;-77
2021/10/20 05:54:54;;;;;;;28.92;24.38;;;;;;;10.05;64.42;100783.16;5033428;28;20025;-76
2021/10/20 05:57:19;;;;;;;38.25;24.50;;;;;;;10.61;64.09;100872.91;5015594;28;20431;-76
2021/10/20 05:59:45;;;;;;;33.75;25.85;;;;;;;9.94;64.23;100783.34;5033212;28;20036;-76
2021/10/20 06:02:14;;;;;;;32.58;25.20;;;;;;;10.16;64.30;100828.69;5033445;28;20502;-76
2021/10/20 06:04:40;;;;;;;30.70;24.55;;;;;;;10.58;64.50;100881.13;5015214;28;20032;-76
2021/10/20 06:07:05;;;;;;;33.85;24.45;;;;;;;10.53;64.41;100872.78;5031553;28;20132;-76
2021/10/20 06:09:31;;;;;;;30.00;24.00;;;;;;;10.65;63.99;100884.84;5032793;28;20029;-76
2021/10/20 06:11:56;;;;;;;31.98;24.17;;;;;;;10.71;64.34;100896.63;5015213;28;20025;-76
2021/10/20 06:14:22;;;;;;;30.92;23.20;;;;;;;10.32;64.51;100819.34;5032994;28;20052;-76
2021/10/20 06:16:47;;;;;;;30.95;22.40;;;;;;;10.30;64.10;100819.50;5044605;28;20052;-76
2021/10/20 06:19:13;;;;;;;29.77;24.83;;;;;;;10.38;63.95;100813.50;5052728;28;20025;-76
2021/10/20 06:21:38;;;;;;;29.10;22.58;;;;;;;10.50;64.11;100833.47;5051427;28;20017;-76
2021/10/20 06:24:04;;;;;;;29.90;21.77;;;;;;;10.93;64.25;100900.69;5052834;28;20036;-76
2021/10/20 06:26:29;;;;;;;32.50;23.77;;;;;;;10.50;64.16;100815.00;5053101;28;20409;-76
2021/10/20 06:28:55;;;;;;;29.58;23.02;;;;;;;10.66;64.55;100843.41;5052969;28;20057;-76
2021/10/20 06:31:21;;;;;;;29.95;23.35;;;;;;;10.54;64.15;100811.06;5046012;28;20043;-76
2021/10/20 06:33:46;;;;;;;35.05;24.42;;;;;;;10.71;64.56;100838.50;5037593;28;20040;-76
2021/10/20 06:36:37;;;;;;;32.95;22.45;;;;;;;10.72;64.39;100841.00;5044203;28;20056;-76
2021/10/20 06:39:03;;;;;;;29.60;23.08;;;;;;;10.99;64.29;100860.47;5046528;28;20493;-76
2021/10/20 06:41:29;;;;;;;35.83;25.52;;;;;;;10.60;64.25;100789.38;5049202;28;20078;-76
2021/10/20 06:43:55;;;;;;;32.75;26.42;;;;;;;11.39;64.24;100913.78;5048685;28;20021;-76
2021/10/20 06:46:20;;;;;;;34.63;25.08;;;;;;;10.94;63.82;100837.13;5047977;28;20045;-76
2021/10/20 06:48:46;;;;;;;37.95;26.42;;;;;;;11.54;64.08;100913.28;5026905;28;20032;-76
2021/10/20 06:51:11;;;;;;;36.75;28.83;;;;;;;11.57;64.27;100905.03;5042091;28;20116;-76
2021/10/20 06:53:38;;;;;;;35.67;26.88;;;;;;;11.16;64.10;100840.34;5050682;28;20032;-77
2021/10/20 06:56:05;;;;;;;32.95;26.70;;;;;;;11.63;63.88;100918.50;5044186;28;20021;-75
2021/10/20 06:58:31;;;;;;;31.80;25.30;;;;;;;11.22;64.34;100845.03;5029657;28;20021;-76
2021/10/20 07:00:56;;;;;;;35.47;26.15;;;;;;;11.26;64.41;100849.88;5012374;28;20052;-77
2021/10/20 07:03:22;;;;;;;33.88;25.92;;;;;;;11.72;64.50;100914.09;5036071;28;20039;-76
2021/10/20 07:05:47;;;;;;;31.40;23.85;;;;;;;11.53;64.76;100866.66;5028987;28;20079;-76
2021/10/20 07:08:13;;;;;;;29.88;24.88;;;;;;;11.36;64.52;100833.94;5041349;28;20144;-76
2021/10/20 07:10:39;;;;;;;31.40;25.08;;;;;;;11.98;64.19;100912.41;5036043;28;20047;-76
2021/10/20 07:13:05;;;;;;;31.77;25.85;;;;;;;11.77;64.32;100880.94;5016727;28;20025;-76
2021/10/20 07:15:31;;;;;;;34.25;26.17;;;;;;;12.05;64.31;100913.44;5047950;28;20497;-76
2021/10/20 07:17:57;;;;;;;38.88;29.77;;;;;;;12.03;64.75;100894.25;5028304;28;20091;-76
2021/10/20 07:20:22;;;;;;;33.13;25.92;;;;;;;11.76;64.39;100844.84;5004958;28;20026;-76
2021/10/20 07:22:48;;;;;;;29.52;23.20;;;;;;;11.78;64.22;100836.78;5012913;28;20419;-76
2021/10/20 07:25:14;;;;;;;27.23;23.33;;;;;;;11.78;64.24;100826.19;5017251;28;20109;-76
2021/10/20 07:27:41;;;;;;;30.50;25.30;;;;;;;12.45;64.31;100919.16;5002817;28;20410;-76
2021/10/20 07:30:09;;;;;;;31.85;25.52;;;;;;;12.54;64.37;100905.81;5017861;28;20037;-76
2021/10/20 07:32:37;;;;;;;32.92;24.92;;;;;;;12.14;64.50;100852.59;5016597;28;20532;-76
2021/10/20 07:35:03;;;;;;;30.20;24.52;;;;;;;12.38;64.62;100858.03;5019077;28;20083;-76
2021/10/20 07:37:29;;;;;;;39.25;31.58;;;;;;;12.56;64.12;100873.84;5019041;28;20064;-76
2021/10/20 07:39:54;;;;;;;40.65;32.70;;;;;;;12.64;64.11;100873.94;5017217;28;20637;-77
2021/10/20 07:42:20;;;;;;;31.08;25.67;;;;;;;12.88;63.80;100905.84;4999310;28;20537;-76
2021/10/20 07:44:48;;;;;;;32.70;24.90;;;;;;;12.75;63.25;100859.56;5004254;28;20086;-76
2021/10/20 07:47:14;;;;;;;30.23;22.67;;;;;;;12.75;63.19;100841.84;5027870;28;20088;-76
2021/10/20 07:49:40;;;;;;;36.63;26.40;;;;;;;12.91;63.09;100851.66;5018606;28;20108;-77
2021/10/20 07:52:05;;;;;;;33.75;25.55;;;;;;;12.49;62.66;100777.47;5024966;28;20116;-76
2021/10/20 07:54:31;;;;;;;26.88;23.98;;;;;;;13.42;62.60;100910.84;5010278;28;20057;-76
2021/10/20 07:56:56;;;;;;;32.20;25.95;;;;;;;13.13;62.03;100848.41;5021133;28;20068;-76
2021/10/20 07:59:22;;;;;;;30.50;24.52;;;;;;;13.20;61.68;100849.44;5005327;28;20033;-76
2021/10/20 08:01:48;;;;;;;29.48;23.90;;;;;;;13.66;61.85;100903.75;5025367;28;20479;-76
2021/10/20 08:04:13;;;;;;;32.10;23.85;;;;;;;13.75;61.75;100898.44;5011708;28;20026;-76
2021/10/20 08:06:39;;;;;;;32.38;26.25;;;;;;;13.75;61.66;100890.50;5013961;28;20029;-76
2021/10/20 08:09:04;;;;;;;36.03;26.77;;;;;;;13.27;61.20;100802.72;4990795;28;20044;-76
2021/10/20 08:11:30;;;;;;;34.85;27.00;;;;;;;13.96;61.12;100901.44;5014334;28;20038;-76
2021/10/20 08:13:56;;;;;;;35.92;26.48;;;;;;;13.90;60.51;100872.91;5020526;28;20038;-76
2021/10/20 08:16:22;;;;;;;30.73;25.23;;;;;;;13.97;60.39;100882.69;5028401;28;20120;-76
2021/10/20 08:18:48;;;;;;;33.70;27.45;;;;;;;14.22;60.38;100898.63;4993932;28;20472;-77
2021/10/20 08:21:13;;;;;;;32.13;26.45;;;;;;;14.10;59.96;100881.34;5023309;28;20029;-75
2021/10/20 08:23:41;;;;;;;36.08;28.13;;;;;;;14.46;59.79;100922.50;5025197;28;20037;-80
2021/10/20 08:26:08;;;;;;;40.42;29.33;;;;;;;14.20;59.57;100850.13;5001139;28;20481;-80
2021/10/20 08:28:33;;;;;;;35.97;29.15;;;;;;;14.53;59.40;100880.97;5020515;28;20025;-82
2021/10/20 08:30:59;;;;;;;39.28;27.35;;;;;;;14.70;58.66;100886.22;5014077;28;20095;-82
2021/10/20 08:33:24;;;;;;;42.03;27.95;;;;;;;14.86;58.33;100902.13;5016154;28;20025;-81
2021/10/20 08:35:49;;;;;;;35.72;25.55;;;;;;;14.98;57.95;100898.09;5018091;28;20028;-80
2021/10/20 08:38:15;;;;;;;36.75;25.27;;;;;;;14.74;57.39;100845.84;5028889;28;20041;-81
2021/10/20 08:40:45;;;;;;;35.70;26.25;;;;;;;15.00;57.08;100876.66;5016713;28;20041;-80
2021/10/20 08:43:12;;;;;;;34.45;24.83;;;;;;;15.20;56.78;100902.63;5014185;28;20045;-81
2021/10/20 08:45:37;;;;;;;32.05;23.15;;;;;;;14.78;56.44;100820.56;5016303;28;20030;-81
2021/10/20 08:48:03;;;;;;;28.67;22.88;;;;;;;14.61;56.05;100787.91;5025446;28;20026;-80
2021/10/20 08:50:32;;;;;;;27.08;21.15;;;;;;;15.39;55.44;100922.66;5021451;28;20080;-81
2021/10/20 08:52:57;;;;;;;30.23;23.58;;;;;;;15.15;55.23;100850.97;4998492;28;20021;-81
2021/10/20 08:55:23;;;;;;;24.98;19.38;;;;;;;15.53;55.04;100897.09;5014204;28;20578;-81
2021/10/20 08:57:50;;;;;;;21.02;17.15;;;;;;;14.92;54.28;100789.75;5025810;28;20036;-81
2021/10/20 09:00:17;;;;;;;23.90;18.13;;;;;;;15.35;54.41;100852.16;5019232;28;20040;-81
2021/10/20 09:02:45;;;;;;;25.95;18.38;;;;;;;15.62;53.97;100877.47;4996571;28;20033;-81
2021/10/20 09:05:13;;;;;;;20.75;15.73;;;;;;;15.77;53.12;100888.16;5014160;28;20092;-81
2021/10/20 09:07:46;;;;;;;21.50;16.38;;;;;;;15.85;52.34;100880.13;5019417;28;20037;-83
2021/10/20 09:10:13;;;;;;;29.55;18.90;;;;;;;15.93;52.33;100876.53;5033881;28;20035;-81
2021/10/20 09:12:40;;;;;;;20.88;17.92;;;;;;;15.98;52.27;100892.81;5009988;28;20033;-81
2021/10/20 09:15:12;;;;;;;25.77;18.80;;;;;;;16.06;52.29;100877.59;5014236;28;20442;-80
2021/10/20 09:17:42;;;;;;;23.15;19.00;;;;;;;16.05;51.12;100865.28;5014891;28;20045;-80
2021/10/20 09:20:23;;;;;;;24.73;18.02;;;;;;;16.17;51.75;100876.31;5016578;28;20418;-81
2021/10/20 09:23:15;;;;;;;22.08;17.77;;;;;;;16.24;51.04;100866.59;4998510;28;20091;-79
2021/10/20 09:25:44;;;;;;;22.42;17.73;;;;;;;16.36;50.95;100865.16;5009760;28;20042;-81
2021/10/20 09:28:11;;;;;;;19.98;16.33;;;;;;;16.36;50.85;100857.16;5018303;28;20044;-81
2021/10/20 09:30:39;;;;;;;22.02;16.80;;;;;;;16.52;50.61;100859.63;5013382;28;20026;-80
2021/10/20 09:33:07;;;;;;;19.70;15.98;;;;;;;16.61;50.16;100854.19;5020797;28;20112;-81
2021/10/20 09:35:34;;;;;;;17.33;15.52;;;;;;;16.45;50.39;100820.56;5016417;28;20033;-81
2021/10/20 09:38:00;;;;;;;16.50;14.80;;;;;;;16.82;49.79;100851.63;5031851;28;20024;-81
2021/10/20 09:40:33;;;;;;;20.58;16.63;;;;;;;16.50;49.76;100794.19;5011828;28;20034;-81
2021/10/20 09:42:58;;;;;;;17.25;15.18;;;;;;;16.47;49.19;100774.06;5017377;28;20108;-81
2021/10/20 09:45:24;;;;;;;15.23;13.00;;;;;;;16.92;48.47;100830.81;5013325;28;20491;-81
2021/10/20 09:47:52;;;;;;;14.10;12.63;;;;;;;17.15;48.19;100846.69;5017017;28;20526;-80
2021/10/20 09:50:18;;;;;;;13.50;11.35;;;;;;;16.99;47.54;100815.72;5023171;28;20071;-81
2021/10/20 09:52:48;;;;;;;14.93;12.65;;;;;;;17.32;47.22;100848.09;5019500;28;20076;-81
2021/10/20 09:55:28;;;;;;;16.10;12.35;;;;;;;17.40;47.07;100844.50;5012956;28;20042;-81
2021/10/20 09:57:59;;;;;;;13.63;12.20;;;;;;;17.06;46.36;100771.25;5026598;28;20120;-81
2021/10/20 10:00:25;;;;;;;13.73;11.80;;;;;;;17.49;46.57;100824.66;5018747;28;20029;-82
2021/10/20 10:02:52;;;;;;;15.35;13.13;;;;;;;17.27;46.32;100777.63;5024645;28;20048;-81
2021/10/20 10:05:17;;;;;;;14.15;11.85;;;;;;;17.17;45.81;100753.09;5013312;28;20507;-80
2021/10/20 10:07:43;;;;;;;14.68;12.77;;;;;;;17.54;45.84;100798.19;5021396;28;20037;-81
2021/10/20 10:10:08;;;;;;;13.95;12.30;;;;;;;17.85;45.44;100829.94;5029526;28;20060;-81
2021/10/20 10:12:34;;;;;;;10.60;9.45;;;;;;;17.98;45.13;100830.03;5012399;28;20026;-81
2021/10/20 10:15:06;;;;;;;9.43;8.30;;;;;;;18.12;44.64;100825.59;4998189;28;20025;-81
2021/10/20 10:17:36;;;;;;;9.68;8.68;;;;;;;18.23;44.14;100834.91;5000580;28;20194;-81
2021/10/20 10:20:10;;;;;;;13.57;9.93;;;;;;;18.13;43.73;100789.00;5024254;28;20113;-80
2021/10/20 10:22:46;;;;;;;10.52;9.23;;;;;;;18.36;43.51;100813.59;5012870;28;20022;-81
2021/10/20 10:25:11;;;;;;;12.25;10.13;;;;;;;18.21;43.01;100778.16;5018133;28;20166;-76
2021/10/20 10:27:37;;;;;;;10.45;9.35;;;;;;;17.99;43.09;100727.47;5017091;28;20081;-76
2021/10/20 10:30:15;;;;;;;9.10;8.20;;;;;;;18.46;43.17;100799.88;4995028;28;20030;-76
2021/10/20 10:32:40;;;;;;;10.25;9.27;;;;;;;18.61;42.50;100811.28;5019585;28;20116;-75
2021/10/20 10:35:07;;;;;;;10.23;8.57;;;;;;;18.37;42.35;100767.97;5020783;28;20051;-75
2021/10/20 10:37:34;;;;;;;9.30;8.35;;;;;;;18.76;42.02;100812.00;5023046;28;20452;-75
2021/10/20 10:40:25;;;;;;;8.45;7.60;;;;;;;18.79;41.71;100794.72;5012229;28;20414;-75
2021/10/20 10:42:51;;;;;;;10.25;9.25;;;;;;;18.72;41.66;100782.13;4987890;28;20128;-75
2021/10/20 10:45:21;;;;;;;9.40;8.35;;;;;;;18.87;41.59;100800.72;5012096;28;20048;-75
2021/10/20 10:47:55;;;;;;;9.55;7.97;;;;;;;18.98;41.59;100788.59;5012234;28;20029;-75
2021/10/20 10:50:36;;;;;;;13.45;9.10;;;;;;;19.02;41.31;100774.59;5023857;28;20087;-74
2021/10/20 10:53:02;;;;;;;11.57;10.10;;;;;;;19.09;41.01;100761.22;5031884;28;20032;-76
2021/10/20 10:55:27;;;;;;;10.00;8.75;;;;;;;18.59;40.84;100671.56;5017586;28;20026;-76
2021/10/20 10:58:03;;;;;;;13.65;10.65;;;;;;;19.32;41.08;100769.72;5013360;28;20033;-76
2021/10/20 11:00:42;;;;;;;9.63;8.63;;;;;;;19.34;40.60;100766.84;5018497;28;20026;-74
2021/10/20 11:03:10;;;;;;;10.32;9.32;;;;;;;19.38;40.63;100760.03;5025141;28;20119;-74
2021/10/20 11:05:37;;;;;;;10.30;9.30;;;;;;;18.94;40.68;100677.63;5030481;28;20065;-77
2021/10/20 11:08:10;;;;;;;14.30;12.60;;;;;;;19.41;40.76;100761.47;5010792;28;20486;-75